WEATHER DATA

YESTERDAY
Time Temp. Dewp. Hum. Wind dir Wind speed Wind gust Bar. 1h Prec. 24h Prec.
00:04 12.2 8.9 80 225 0.3 0.8 1017.2 0.3030 0.0000
00:25 12 8.7 80 241 0.6 1.1 1017 0.5050 0.3000
00:34 12 8.8 81 232 0.6 1.1 1017.1 0.5050 0.3000
00:45 12 8.8 81 231 0.3 1.1 1017.1 0.3030 0.3000
01:05 12 8.8 81 241 0.6 1.1 1016.8 0.4040 0.4000
01:15 12 9 82 239 0.6 1.1 1016.9 0.1010 0.4000
01:35 12.1 9.1 82 240 0.6 1.1 1017.1 0.1010 0.4000
01:45 12.1 9.1 82 228 0.6 1.1 1017.1 0.1010 0.4000
01:56 12.1 9.1 82 227 0.6 1.7 1016.9 0.0000 0.4000
02:06 12.1 9.1 82 232 0.6 1.1 1016.9 0.0000 0.4000
02:15 12.1 9.1 82 236 0.6 1.1 1016.8 0.0000 0.4000
02:25 12.2 9.2 82 240 0.3 0.8 1017 0.0000 0.4000
02:36 12.3 9.3 82 236 0.3 1.1 1017 0.0000 0.4000
02:46 12.3 9.3 82 228 0.6 1.4 1016.8 0.0000 0.4000
02:56 12.3 9.3 82 240 0.6 0.8 1016.8 0.0000 0.4000
03:06 12.4 9.4 82 228 0.3 1.1 1016.8 0.0000 0.4000
03:17 12.4 9.4 82 235 0.3 0.8 1016.8 0.0000 0.4000
03:27 12.4 9.4 82 237 0.6 1.4 1016.7 0.0000 0.4000
03:37 12.5 9.5 82 228 0.6 0.8 1016.4 0.0000 0.4000
03:47 12.5 9.3 81 239 0.6 1.9 1016.5 0.0000 0.4000
03:57 12.5 9.5 82 236 0.6 1.4 1016.5 0.0000 0.4000
04:07 12.5 9.5 82 225 0.3 1.1 1016.5 0.0000 0.4000
04:17 12.5 9.3 81 231 0.6 1.1 1016.8 0.0000 0.4000
04:28 12.6 9.4 81 234 0.6 1.1 1016.8 0.0000 0.4000
04:38 12.6 9.4 81 236 0.3 0.8 1016.7 0.0000 0.4000
04:47 12.6 9.4 81 228 0.6 1.4 1016.9 0.0000 0.4000
04:58 12.6 9.4 81 240 0.6 1.4 1017 0.0000 0.4000
05:08 12.7 9.5 81 240 0.6 1.4 1017.3 0.0000 0.4000
05:18 12.7 9.5 81 233 0.6 1.1 1017.3 0.0000 0.4000
05:28 12.7 9.5 81 240 0.6 1.1 1017.4 0.0000 0.4000
05:39 12.8 9.6 81 235 0.3 1.1 1017.3 0.0000 0.4000
05:49 12.8 9.6 81 240 0.6 0.8 1017.4 0.0000 0.4000
05:59 12.8 9.6 81 238 0.6 1.1 1017.3 0.0000 0.4000
06:09 12.9 9.9 82 240 0.6 0.8 1017.2 0.0000 0.4000
06:19 12.9 9.7 81 239 0.3 0.8 1017.3 0.0000 0.4000
06:29 12.9 9.7 81 231 0.6 0.8 1017.2 0.0000 0.4000
06:39 12.9 9.7 81 239 0.6 0.8 1017.3 0.0000 0.4000
06:49 12.9 9.7 81 231 0.6 1.4 1017.3 0.0000 0.4000
06:59 12.9 9.7 81 239 0.6 1.1 1017.4 0.0000 0.4000
07:09 13 9.8 81 236 0.6 0.8 1017.5 0.0000 0.4000
07:19 13 9.8 81 233 0.6 0.8 1017.6 0.0000 0.4000
07:30 13 9.8 81 236 0.6 0.8 1017.8 0.0000 0.4000
07:40 13 9.8 81 231 0.3 0.8 1017.9 0.0000 0.4000
07:49 13.1 9.9 81 235 0.6 1.1 1018 0.0000 0.4000
08:00 13.1 9.9 81 244 0.6 0.8 1018.2 0.0000 0.4000
08:10 13.3 10.1 81 240 0.6 0.8 1018.4 0.0000 0.4000
08:20 13.3 9.9 80 236 0.6 0.8 1018.4 0.0000 0.4000
08:29 13.4 10 80 228 0.3 0.8 1018.4 0.0000 0.4000
08:40 13.5 10.1 80 231 0.3 0.8 1018.7 0.0000 0.4000
09:00 13.6 10 79 227 0.6 0.8 1018.9 0.0000 0.4000
09:10 13.7 10.3 80 218 0.6 0.8 1019 0.0000 0.4000
09:20 13.7 10.1 79 218 0.3 1.1 1019 0.0000 0.4000
09:30 13.7 10.1 79 225 0.6 0.8 1019 0.0000 0.4000
09:40 13.8 10.2 79 228 0.3 0.8 1019.1 0.0000 0.4000
09:51 13.9 10.3 79 225 0.3 0.8 1019.1 0.0000 0.4000
10:01 13.9 10.3 79 228 0.6 1.1 1019.2 0.0000 0.4000
10:10 14 10.4 79 220 0.3 0.8 1019.3 0.0000 0.4000
10:21 14.2 10.4 78 225 0.3 1.1 1019.1 0.0000 0.4000
10:31 14.1 10.3 78 232 0.3 0.8 1019.1 0.0000 0.4000
10:41 14.2 10.4 78 225 0.3 0.6 1019.2 0.0000 0.4000
10:51 14.3 10.5 78 142 0.3 0.6 1019.3 0.0000 0.4000
11:01 14.5 10.9 79 206 0.3 0.6 1019.5 0.0000 0.4000
11:11 15.1 10.9 76 150 0.3 0.6 1019.3 0.0000 0.4000
11:21 15 10.8 76 215 0.3 0.6 1019.4 0.0000 0.4000
11:31 14.9 10.5 75 217 0.3 1.1 1019.3 0.0000 0.4000
11:42 14.9 10.5 75 225 0.3 1.1 1019.3 0.0000 0.4000
11:51 14.8 10.4 75 210 0.3 0.8 1019.3 0.0000 0.4000
12:01 14.9 10.5 75 210 0.3 0.8 1019.5 0.0000 0.4000
12:12 15 10.4 74 161 0.3 0.6 1019.3 0.0000 0.4000
12:23 14.9 10.3 74 225 0.3 0.8 1019.2 0.0000 0.4000
12:33 14.9 10.3 74 217 0.3 1.4 1019.2 0.0000 0.4000
12:43 15.2 10.4 73 206 0.3 1.1 1019.4 0.0000 0.4000
12:54 15 10 72 198 0.3 0.8 1019.3 0.0000 0.4000
13:04 14.9 9.9 72 203 0.3 0.8 1019.1 0.0000 0.4000
13:13 14.8 9.8 72 215 0.3 1.4 1019.3 0.0000 0.4000
13:23 14.8 10 73 189 0.3 1.7 1019.5 0.0000 0.4000
13:34 14.8 10 73 203 0.3 0.6 1019.4 0.0000 0.4000
13:44 14.7 9.7 72 232 0.3 1.1 1019.2 0.0000 0.4000
13:53 14.7 9.7 72 206 0.3 0.8 1019.3 0.0000 0.4000
14:04 14.7 9.7 72 158 0.3 1.4 1019.4 0.0000 0.4000
14:14 15 10.4 74 167 0.3 0.8 1019.5 0.0000 0.4000
14:24 15.1 9.9 71 217 0.3 0.6 1019.4 0.0000 0.4000
14:34 15 9.8 71 225 0.3 1.1 1019.4 0.0000 0.4000
14:44 15.5 10.7 73 204 0.3 1.4 1019.5 0.0000 0.4000
14:54 15.4 9.7 69 203 0.3 1.1 1019.4 0.0000 0.4000
15:04 15.3 9.7 69 171 0.3 0.8 1019.5 0.0000 0.4000
15:14 15.2 9.6 69 168 0.3 1.7 1019.5 0.0000 0.4000
15:25 15.2 9.6 69 153 0.3 0.6 1019.5 0.0000 0.4000
15:50 15.7 9.6 67 225 0.3 0.8 1019.6 0.0000 0.4000
16:00 15.6 9.5 67 225 0.3 1.1 1019.6 0.0000 0.4000
16:10 15.6 9.5 67 198 0.3 0.6 1019.7 0.0000 0.4000
16:19 15.8 10.1 69 225 0.3 1.1 1020 0.0000 0.4000
16:30 16 9.4 65 270 0.6 1.4 1019.8 0.0000 0.4000
16:40 15.7 9.4 66 253 0.6 1.1 1019.8 0.0000 0.4000
16:50 15.4 9.1 66 249 0.8 1.1 1019.8 0.0000 0.4000
17:00 15.2 8.9 66 239 0.8 1.4 1019.9 0.0000 0.4000
17:10 15.1 9 67 247 0.6 1.1 1019.9 0.0000 0.4000
17:20 15 8.9 67 241 0.6 1.1 1020.1 0.0000 0.4000
17:30 15.3 10.1 71 237 0.6 1.1 1020.1 0.0000 0.4000
17:41 15.3 9.2 67 241 0.6 1.1 1020.2 0.0000 0.4000
17:50 15.2 9.1 67 244 0.6 1.1 1020.3 0.0000 0.4000
18:00 15.1 9.2 68 241 0.6 0.8 1020.3 0.0000 0.4000
18:11 15.6 9.9 69 239 0.6 1.1 1020.5 0.0000 0.4000
18:21 15.4 9.3 67 244 0.6 1.1 1020.7 0.0000 0.4000
18:31 15.2 9.1 67 241 0.6 1.1 1020.7 0.0000 0.4000
18:40 15 8.9 67 245 0.6 1.1 1020.8 0.0000 0.4000
18:51 15.1 9.7 70 238 0.6 0.8 1021 0.0000 0.4000
19:01 15.4 9.5 68 244 0.6 0.8 1021 0.0000 0.4000
19:11 15.4 9.5 68 241 0.6 0.8 1021 0.0000 0.4000
19:21 15.3 9.4 68 233 0.6 0.8 1020.9 0.0000 0.4000
19:31 15.2 9.3 68 270 0.3 0.8 1020.9 0.0000 0.4000
19:41 15.1 9 67 238 0.6 0.8 1020.9 0.0000 0.4000
19:51 15 8.9 67 239 0.6 1.1 1021 0.0000 0.4000
20:02 15 9.1 68 243 0.6 1.1 1021.1 0.0000 0.4000
20:11 15 9.1 68 244 0.6 1.1 1021.1 0.0000 0.4000
20:21 15.5 9.4 67 239 0.6 0.8 1021.1 0.0000 0.4000
20:32 15.5 9.6 68 238 0.6 0.8 1021.2 0.0000 0.4000
20:42 15.4 9.3 67 239 0.6 0.8 1021.3 0.0000 0.4000
20:52 15.3 9.2 67 242 0.6 0.8 1021.4 0.0000 0.4000
21:01 15.5 10.1 70 241 0.6 0.8 1021.5 0.0000 0.4000
21:12 15.6 9.5 67 242 0.6 0.8 1021.4 0.0000 0.4000
21:22 15.4 9.3 67 239 0.6 0.8 1021.4 0.0000 0.4000
21:32 15.3 9.2 67 244 0.6 0.8 1021.4 0.0000 0.4000
21:42 15.5 10.1 70 232 0.6 0.8 1021.5 0.0000 0.4000
21:52 15.7 9.6 67 242 0.6 0.8 1021.4 0.0000 0.4000
22:02 15.5 9.4 67 237 0.6 0.8 1021.4 0.0000 0.4000
22:12 15.4 9.3 67 242 0.6 0.8 1021.4 0.0000 0.4000
22:23 15.3 9.2 67 240 0.6 0.8 1021.4 0.0000 0.4000
22:32 15.3 9.2 67 244 0.6 0.8 1021.4 0.0000 0.4000
22:42 15.2 9.1 67 240 0.6 0.8 1021.2 0.0000 0.4000
22:52 15.2 9.1 67 239 0.6 1.1 1021.2 0.0000 0.4000
23:03 15.1 9.2 68 242 0.6 0.8 1021.3 0.0000 0.4000
23:13 15.1 9.2 68 239 0.6 0.8 1021.3 0.0000 0.4000
23:23 15.1 9.2 68 242 0.6 0.8 1021.4 0.0000 0.4000
23:34 15 9.4 69 244 0.6 0.8 1021.3 0.0000 0.4000
23:44 15 9.4 69 245 0.6 0.8 1021.3 0.0000 0.4000
23:54 15 9.4 69 242 0.6 0.8 1021.4 0.0000

DAY STATISTIC

2020-10-30
TEMPERATURE
AVERAGE
14.2
HIGH
16.0
16:30
LOW
12.0
00:25
PRESSURE
AVERAGE
1019.1
HIGH
1021.5
21:01
LOW
1016.4
03:37
DEWPOINT
AVERAGE
9.6
HIGH
10.9
11:01
LOW
8.7
00:25
HUMIDITY
AVERAGE
75
HIGH
82
01:15
LOW
65
16:30
WIND SPEED
AVERAGE
0.5
HIGH
0.8
16:50
WIND GUST
AVERAGE
1.0
HIGH
1.9
03:47
WIND DIRECTION
PREVAILING
SW
86.1%
N
0.0
NE
0.0
E
0.0
SE
2.2
S
8.8
SW
86.1
W
2.9
NW
0.0
PRECIPITATION
RAIN HOUR
0.5
RAIN DAY
0.4
TEMPERATURE (°C)
LOW
12.0
HIGH
16.0
AVERAGE
14.2
PRESSURE (hpa)
LOW
1016.4
HIGH
1021.5
AVERAGE
1019.1
DEVICE